createdAt,value
2022-12-08T00:01:50.642Z,98477.25
2022-12-08T00:04:27.845Z,98450.06
2022-12-08T00:07:15.258Z,98474.84
2022-12-08T00:09:45.789Z,98472.06
2022-12-08T00:12:16.765Z,98459.06
2022-12-08T00:14:47.330Z,98455.22
2022-12-08T00:17:17.835Z,98455.94
2022-12-08T00:19:47.957Z,98460.00
2022-12-08T00:22:16.844Z,98454.81
2022-12-08T00:24:47.886Z,98458.19
2022-12-08T00:27:24.889Z,98450.22
2022-12-08T00:29:55.623Z,98442.75
2022-12-08T00:32:23.883Z,98435.25
2022-12-08T00:34:54.361Z,98436.84
2022-12-08T00:37:22.720Z,98434.38
2022-12-08T00:39:51.258Z,98437.38
2022-12-08T00:42:20.405Z,98433.78
2022-12-08T00:44:49.787Z,98433.03
2022-12-08T00:47:23.460Z,98438.00
2022-12-08T00:49:55.747Z,98431.75
2022-12-08T00:52:23.782Z,98436.50
2022-12-08T00:54:51.797Z,98420.88
2022-12-08T00:57:20.124Z,98401.91
2022-12-08T00:59:49.475Z,98424.28
2022-12-08T01:02:17.547Z,98403.63
2022-12-08T01:04:45.860Z,98407.19
2022-12-08T01:07:15.516Z,98404.69
2022-12-08T01:09:43.570Z,98414.34
2022-12-08T01:12:11.659Z,98416.72
2022-12-08T01:14:39.619Z,98420.97
2022-12-08T01:17:07.735Z,98423.56
2022-12-08T01:19:35.814Z,98414.09
2022-12-08T01:22:03.959Z,98421.88
2022-12-08T01:24:33.513Z,98421.88
2022-12-08T01:27:01.533Z,98414.44
2022-12-08T01:29:29.563Z,98416.88
2022-12-08T01:31:57.621Z,98405.03
2022-12-08T01:34:25.631Z,98409.41
2022-12-08T01:36:53.642Z,98392.16
2022-12-08T01:39:21.828Z,98413.72
2022-12-08T01:41:51.305Z,98407.25
2022-12-08T01:45:04.738Z,98411.50
2022-12-08T01:47:39.115Z,98408.69
2022-12-08T01:50:11.876Z,98407.56
2022-12-08T01:52:44.308Z,98399.25
2022-12-08T01:55:18.085Z,98408.13
2022-12-08T01:57:50.551Z,98405.69
2022-12-08T02:00:21.947Z,98405.94
2022-12-08T02:02:55.816Z,98413.63
2022-12-08T02:05:25.960Z,98408.03
2022-12-08T02:07:55.579Z,98402.88
2022-12-08T02:10:25.413Z,98404.03
2022-12-08T02:12:57.577Z,98396.50
2022-12-08T02:15:33.125Z,98411.78
2022-12-08T02:18:14.905Z,98407.78
2022-12-08T02:20:50.528Z,98398.63
2022-12-08T02:23:26.320Z,98409.44
2022-12-08T02:26:17.519Z,98394.28
2022-12-08T02:29:24.016Z,98390.63
2022-12-08T02:32:06.258Z,98382.47
2022-12-08T02:34:45.339Z,98379.44
2022-12-08T02:37:19.598Z,98379.25
2022-12-08T02:39:55.164Z,98386.69
2022-12-08T02:42:29.068Z,98381.16
2022-12-08T02:44:59.275Z,98374.72
2022-12-08T02:47:29.598Z,98369.94
2022-12-08T02:50:00.181Z,98382.31
2022-12-08T02:52:42.839Z,98378.78
2022-12-08T02:55:16.242Z,98358.81
2022-12-08T02:57:57.913Z,98355.50
2022-12-08T03:00:30.440Z,98335.41
2022-12-08T03:03:10.689Z,98363.41
2022-12-08T03:06:02.739Z,98363.53
2022-12-08T03:08:36.403Z,98362.47
2022-12-08T03:11:10.757Z,98338.38
2022-12-08T03:13:43.502Z,98354.94
2022-12-08T03:16:16.329Z,98346.66
2022-12-08T03:18:49.127Z,98328.78
2022-12-08T03:21:20.693Z,98337.13
2022-12-08T03:23:51.947Z,98364.91
2022-12-08T03:26:24.925Z,98351.88
2022-12-08T03:28:52.993Z,98340.59
2022-12-08T03:31:22.775Z,98349.59
2022-12-08T03:33:53.853Z,98351.34
2022-12-08T03:36:23.703Z,98336.72
2022-12-08T03:38:54.503Z,98338.47
2022-12-08T03:41:23.797Z,98322.09
2022-12-08T03:43:53.659Z,98327.31
2022-12-08T03:48:50.448Z,98315.88
2022-12-08T03:51:18.604Z,98317.59
2022-12-08T03:53:48.329Z,98318.06
2022-12-08T03:56:20.858Z,98238.16
2022-12-08T03:58:48.863Z,98310.13
2022-12-08T04:01:16.871Z,98308.09
2022-12-08T04:03:45.043Z,98306.19
2022-12-08T04:06:13.261Z,98303.56
2022-12-08T04:08:41.401Z,98308.75
2022-12-08T04:11:11.273Z,98305.25
2022-12-08T04:13:41.155Z,98301.94
2022-12-08T04:16:10.356Z,98294.91
2022-12-08T04:18:38.387Z,98250.13
2022-12-08T04:21:06.732Z,98294.25
2022-12-08T04:23:34.726Z,98296.69
2022-12-08T04:26:02.752Z,98300.25
2022-12-08T04:28:32.204Z,98300.06
2022-12-08T04:31:00.519Z,98284.88
2022-12-08T04:33:28.624Z,98293.88
2022-12-08T04:35:56.676Z,98285.41
2022-12-08T04:38:24.788Z,98287.56
2022-12-08T04:40:53.000Z,98273.19
2022-12-08T04:43:21.756Z,98278.28
2022-12-08T04:45:51.174Z,98281.59
2022-12-08T04:48:19.326Z,98272.19
2022-12-08T04:50:47.436Z,98253.34
2022-12-08T04:53:15.991Z,98273.06
2022-12-08T04:55:45.522Z,98276.38
2022-12-08T04:58:14.956Z,98276.66
2022-12-08T05:00:43.209Z,98273.75
2022-12-08T05:03:12.834Z,98254.50
2022-12-08T05:05:40.888Z,98271.38
2022-12-08T05:08:09.705Z,98264.75
2022-12-08T05:10:38.039Z,98253.84
2022-12-08T05:13:06.037Z,98262.91
2022-12-08T05:15:34.066Z,98258.44
2022-12-08T05:18:02.063Z,98263.63
2022-12-08T05:20:31.455Z,98261.91
2022-12-08T05:22:59.453Z,98259.66
2022-12-08T05:25:27.495Z,98263.19
2022-12-08T05:28:17.509Z,98261.63
2022-12-08T05:30:43.463Z,98249.88
2022-12-08T05:33:11.509Z,98268.25
2022-12-08T05:35:41.109Z,98261.28
2022-12-08T05:38:09.591Z,98251.81
2022-12-08T05:40:39.608Z,98260.38
2022-12-08T05:43:09.036Z,98262.03
2022-12-08T05:45:37.336Z,98188.47
2022-12-08T05:48:06.112Z,98254.47
2022-12-08T05:50:35.324Z,98257.78
2022-12-08T05:53:06.670Z,98262.44
2022-12-08T05:55:34.714Z,98255.00
2022-12-08T05:58:07.596Z,98253.16
2022-12-08T06:00:36.187Z,98257.34
2022-12-08T06:03:04.570Z,98231.25
2022-12-08T06:05:34.355Z,98258.47
2022-12-08T06:08:02.526Z,98256.09
2022-12-08T06:10:32.099Z,98261.66
2022-12-08T06:13:00.447Z,98234.25
2022-12-08T06:15:28.727Z,98242.13
2022-12-08T06:17:56.891Z,98254.69
2022-12-08T06:20:24.984Z,98252.75
2022-12-08T06:22:53.336Z,98252.53
2022-12-08T06:25:22.142Z,98267.13
2022-12-08T06:27:51.872Z,98267.91
2022-12-08T06:30:20.168Z,98268.16
2022-12-08T06:32:48.185Z,98264.13
2022-12-08T06:35:16.164Z,98269.75
2022-12-08T06:37:44.172Z,98274.09
2022-12-08T06:40:12.976Z,98273.25
2022-12-08T06:42:47.257Z,98270.00
2022-12-08T06:45:18.339Z,98274.84
2022-12-08T06:47:46.359Z,98274.34
2022-12-08T06:50:14.970Z,98266.88
2022-12-08T06:52:54.272Z,98274.69
2022-12-08T06:55:58.806Z,98240.81
2022-12-08T06:58:17.081Z,98268.06
2022-12-08T07:00:46.820Z,98265.56
2022-12-08T07:03:15.368Z,98254.59
2022-12-08T07:05:46.431Z,98269.28
2022-12-08T07:08:14.655Z,98265.97
2022-12-08T07:10:42.828Z,98254.53
2022-12-08T07:13:11.025Z,98261.47
2022-12-08T07:15:39.055Z,98267.91
2022-12-08T07:18:08.622Z,98262.97
2022-12-08T07:20:38.770Z,98274.09
2022-12-08T07:23:11.094Z,98170.41
2022-12-08T07:25:39.258Z,98226.09
2022-12-08T07:28:11.251Z,98265.22
2022-12-08T07:30:39.905Z,98244.72
2022-12-08T07:33:10.558Z,98225.44
2022-12-08T07:35:38.702Z,98261.13
2022-12-08T07:38:06.755Z,98266.19
2022-12-08T07:40:34.764Z,98268.53
2022-12-08T07:43:03.027Z,98254.09
2022-12-08T07:45:57.040Z,98208.00
2022-12-08T07:48:35.914Z,98155.25
2022-12-08T07:54:31.039Z,98248.28
2022-12-08T07:57:01.923Z,98255.19
2022-12-08T07:59:29.913Z,98240.34
2022-12-08T08:02:21.378Z,98249.31
2022-12-08T08:04:51.418Z,98251.50
2022-12-08T08:07:19.594Z,98255.00
2022-12-08T08:09:47.590Z,98247.19
2022-12-08T08:12:32.297Z,98244.13
2022-12-08T08:15:01.183Z,98251.13
2022-12-08T08:17:29.742Z,98256.63
2022-12-08T08:19:59.469Z,98244.97
2022-12-08T08:22:28.094Z,98256.44
2022-12-08T08:25:39.278Z,98254.19
2022-12-08T08:28:07.358Z,98246.38
2022-12-08T08:30:35.331Z,98250.22
2022-12-08T08:33:03.365Z,98252.47
2022-12-08T08:35:32.802Z,98217.28
2022-12-08T08:38:00.851Z,98266.19
2022-12-08T08:40:28.822Z,98268.22
2022-12-08T08:42:56.866Z,98261.13
2022-12-08T08:45:24.831Z,98276.56
2022-12-08T08:47:52.848Z,98268.44
2022-12-08T08:50:37.170Z,98257.69
2022-12-08T08:53:07.106Z,98274.34
2022-12-08T08:55:35.091Z,98263.41
2022-12-08T08:58:03.108Z,98274.06
2022-12-08T09:00:31.077Z,98265.34
2022-12-08T09:02:59.105Z,98270.78
2022-12-08T09:05:27.195Z,98267.13
2022-12-08T09:15:38.516Z,98168.25
2022-12-08T09:18:07.805Z,98246.84
2022-12-08T09:20:36.467Z,98261.72
2022-12-08T09:23:04.527Z,98235.19
2022-12-08T09:25:32.588Z,98248.91
2022-12-08T09:28:02.088Z,98244.91
2022-12-08T09:30:30.176Z,98242.56
2022-12-08T09:32:58.221Z,98229.84
2022-12-08T09:35:26.438Z,98211.75
2022-12-08T09:37:54.554Z,98239.59
2022-12-08T09:40:25.130Z,98234.50
2022-12-08T09:42:58.797Z,98223.75
2022-12-08T09:45:34.486Z,98225.19
2022-12-08T09:48:07.809Z,98222.63
2022-12-08T09:50:40.293Z,98226.06
2022-12-08T09:53:14.815Z,98232.53
2022-12-08T09:55:45.952Z,98205.66
2022-12-08T09:58:22.927Z,98225.75
2022-12-08T10:00:52.346Z,98207.81
2022-12-08T10:03:23.325Z,98212.03
2022-12-08T10:05:58.212Z,98216.13
2022-12-08T10:08:30.460Z,98218.59
2022-12-08T10:11:01.824Z,98228.31
2022-12-08T10:13:40.003Z,98220.66
2022-12-08T10:16:26.714Z,98222.47
2022-12-08T10:19:10.505Z,98204.13
2022-12-08T10:21:40.751Z,98197.88
2022-12-08T10:24:17.482Z,98165.81
2022-12-08T10:26:46.904Z,98195.59
2022-12-08T10:29:37.967Z,98191.91
2022-12-08T10:32:16.730Z,98163.09
2022-12-08T10:35:01.396Z,98180.53
2022-12-08T10:37:29.536Z,98184.81
2022-12-08T10:40:02.850Z,98173.44
2022-12-08T10:42:37.339Z,98175.00
2022-12-08T10:45:24.165Z,98155.56
2022-12-08T10:48:01.796Z,98115.59
2022-12-08T10:50:33.230Z,98162.50
2022-12-08T10:53:03.408Z,98159.88
2022-12-08T10:55:42.186Z,98144.09
2022-12-08T10:58:25.922Z,98149.00
2022-12-08T11:00:56.492Z,98152.78
2022-12-08T11:03:29.678Z,98135.25
2022-12-08T11:06:02.812Z,98151.75
2022-12-08T11:08:33.634Z,98141.94
2022-12-08T11:11:01.722Z,98099.59
2022-12-08T11:13:30.175Z,98115.31
2022-12-08T11:15:58.803Z,98109.84
2022-12-08T11:18:30.805Z,98105.09
2022-12-08T11:21:01.966Z,98113.38
2022-12-08T11:23:31.505Z,98110.16
2022-12-08T11:26:06.281Z,98096.22
2022-12-08T11:28:34.475Z,98118.06
2022-12-08T11:31:13.287Z,98111.47
2022-12-08T11:33:45.486Z,98115.47
2022-12-08T11:36:16.981Z,98094.28
2022-12-08T11:38:50.560Z,98120.09
2022-12-08T11:41:21.295Z,98104.47
2022-12-08T11:43:56.880Z,98110.69
2022-12-08T11:46:27.625Z,98108.94
2022-12-08T11:49:06.699Z,98109.13
2022-12-08T11:51:38.200Z,98103.22
2022-12-08T11:54:23.444Z,98109.69
2022-12-08T11:56:55.048Z,98110.69
2022-12-08T11:59:29.700Z,98100.59
2022-12-08T12:01:59.475Z,98092.03
2022-12-08T12:04:34.318Z,98097.88
2022-12-08T12:07:38.938Z,98088.97
2022-12-08T12:10:29.080Z,98091.16
2022-12-08T12:13:15.267Z,98082.59
2022-12-08T12:16:16.345Z,98083.94
2022-12-08T12:18:48.455Z,98081.91
2022-12-08T12:21:22.936Z,98073.72
2022-12-08T12:23:55.681Z,98061.63
2022-12-08T12:26:26.195Z,98070.66
2022-12-08T12:28:58.120Z,98076.47
2022-12-08T12:31:30.302Z,98068.69
2022-12-08T12:34:08.249Z,98067.63
2022-12-08T12:36:49.545Z,98067.41
2022-12-08T12:39:21.326Z,98044.06
2022-12-08T12:41:53.248Z,98050.81
2022-12-08T12:44:38.815Z,98063.59
2022-12-08T12:47:12.328Z,98057.97
2022-12-08T12:50:08.346Z,98045.91
2022-12-08T12:52:43.072Z,98039.78
2022-12-08T12:55:46.114Z,98045.50
2022-12-08T12:58:24.705Z,98042.84
2022-12-08T13:01:30.322Z,98047.63
2022-12-08T13:04:07.265Z,98043.19
2022-12-08T13:06:39.558Z,98043.19
2022-12-08T13:09:21.501Z,98037.34
2022-12-08T13:11:54.388Z,98020.66
2022-12-08T13:14:37.251Z,98044.28
2022-12-08T13:17:11.689Z,98043.44
2022-12-08T13:19:41.507Z,98044.78
2022-12-08T13:22:46.677Z,98037.91
2022-12-08T13:25:48.249Z,98032.13
2022-12-08T13:28:25.336Z,98025.69
2022-12-08T13:30:54.902Z,98024.75
2022-12-08T13:33:32.180Z,98018.84
2022-12-08T13:36:19.831Z,98013.84
2022-12-08T13:38:49.337Z,98018.31
2022-12-08T13:41:23.697Z,98019.59
2022-12-08T13:44:50.341Z,98026.06
2022-12-08T13:47:25.106Z,98013.53
2022-12-08T13:58:19.859Z,98017.97
2022-12-08T14:01:01.707Z,98004.47
2022-12-08T14:03:30.082Z,98001.84
2022-12-08T14:06:13.867Z,97996.94
2022-12-08T14:09:00.310Z,97984.78
2022-12-08T14:11:35.515Z,97997.88
2022-12-08T14:14:09.645Z,97997.94
2022-12-08T14:16:40.800Z,97981.22
2022-12-08T14:19:18.835Z,97969.03
2022-12-08T14:21:55.719Z,97970.41
2022-12-08T14:24:24.319Z,97985.94
2022-12-08T14:26:55.195Z,97994.25
2022-12-08T14:29:44.039Z,97987.63
2022-12-08T14:32:25.637Z,97983.16
2022-12-08T14:35:00.317Z,97985.28
2022-12-08T14:37:32.117Z,97984.69
2022-12-08T14:40:04.070Z,97989.53
2022-12-08T14:42:32.406Z,97990.44
2022-12-08T14:45:06.986Z,97988.00
2022-12-08T14:47:35.958Z,97994.38
2022-12-08T14:50:06.145Z,97985.56
2022-12-08T14:52:34.436Z,97992.94
2022-12-08T14:55:02.530Z,97978.28
2022-12-08T14:57:36.440Z,97976.53
2022-12-08T15:00:20.440Z,97998.84
2022-12-08T15:02:48.548Z,97996.47
2022-12-08T15:05:19.688Z,97983.09
2022-12-08T15:07:50.252Z,97986.22
2022-12-08T15:10:24.904Z,97932.44
2022-12-08T15:13:05.923Z,97985.19
2022-12-08T15:15:48.592Z,97978.03
2022-12-08T15:18:18.984Z,97982.91
2022-12-08T15:20:50.146Z,97964.06
2022-12-08T15:23:26.105Z,97964.59
2022-12-08T15:25:54.462Z,97960.31
2022-12-08T15:28:29.403Z,97947.91
2022-12-08T15:30:59.940Z,97952.28
2022-12-08T15:33:28.840Z,97960.91
2022-12-08T15:35:56.831Z,97955.69
2022-12-08T15:38:26.911Z,97952.00
2022-12-08T15:40:59.012Z,97959.22
2022-12-08T15:43:27.224Z,97945.25
2022-12-08T15:45:59.909Z,97971.44
2022-12-08T15:48:31.548Z,97956.84
2022-12-08T15:51:00.024Z,97961.72
2022-12-08T15:53:30.390Z,97945.59
2022-12-08T15:58:57.828Z,97948.16
2022-12-08T16:01:27.068Z,97943.22
2022-12-08T16:09:39.629Z,97928.53
2022-12-08T16:13:13.428Z,97923.59
2022-12-08T16:18:16.654Z,97941.28
2022-12-08T16:23:43.023Z,97935.53
2022-12-08T16:26:35.613Z,97924.78
2022-12-08T16:29:01.993Z,97925.72
2022-12-08T16:31:30.553Z,97930.88
2022-12-08T16:33:59.010Z,97910.13
2022-12-08T16:36:28.451Z,97928.41
2022-12-08T16:38:56.479Z,97908.75
2022-12-08T16:41:42.305Z,97935.25
2022-12-08T16:44:10.389Z,97928.34
2022-12-08T16:46:38.448Z,97919.03
2022-12-08T16:49:10.212Z,97898.31
2022-12-08T16:51:39.745Z,97926.59
2022-12-08T16:54:07.765Z,97925.81
2022-12-08T16:56:36.117Z,97931.66
2022-12-08T16:59:21.076Z,97913.19
2022-12-08T17:01:49.184Z,97926.28
2022-12-08T17:04:32.895Z,97913.66
2022-12-08T17:07:02.467Z,97926.16
2022-12-08T17:09:32.634Z,97932.03
2022-12-08T17:12:03.966Z,97869.38
2022-12-08T17:14:36.431Z,97925.16
2022-12-08T17:17:05.393Z,97927.69
2022-12-08T17:19:38.341Z,97932.50
2022-12-08T17:22:09.430Z,97928.19
2022-12-08T17:24:38.547Z,97923.31
2022-12-08T17:27:07.477Z,97943.72
2022-12-08T17:29:38.294Z,97920.84
2022-12-08T17:32:07.592Z,97918.34
2022-12-08T17:34:36.040Z,97925.31
2022-12-08T17:37:05.323Z,97940.50
2022-12-08T17:39:35.931Z,97859.28
2022-12-08T17:42:04.433Z,97952.50
2022-12-08T17:44:33.623Z,97936.38
2022-12-08T17:47:03.643Z,97919.09
2022-12-08T17:49:35.177Z,97937.31
2022-12-08T17:52:07.091Z,97939.06
2022-12-08T17:54:40.851Z,97937.31
2022-12-08T17:57:09.352Z,97917.03
2022-12-08T17:59:37.572Z,97942.63
2022-12-08T18:02:06.377Z,97907.72
2022-12-08T18:04:35.067Z,97939.69
2022-12-08T18:07:04.926Z,97930.06
2022-12-08T18:09:33.963Z,97920.34
2022-12-08T18:12:03.980Z,97931.44
2022-12-08T18:14:32.483Z,97926.69
2022-12-08T18:17:01.446Z,97918.16
2022-12-08T18:19:30.413Z,97907.34
2022-12-08T18:21:58.987Z,97908.63
2022-12-08T18:24:27.009Z,97890.19
2022-12-08T18:26:56.327Z,97914.50
2022-12-08T18:29:26.589Z,97907.59
2022-12-08T18:31:54.724Z,97900.47
2022-12-08T18:34:22.698Z,97905.06
2022-12-08T18:36:50.712Z,97896.81
2022-12-08T18:39:23.428Z,97907.34
2022-12-08T18:41:51.580Z,97892.72
2022-12-08T18:44:19.765Z,97894.53
2022-12-08T18:46:50.157Z,97894.47
2022-12-08T18:49:22.929Z,97909.56
2022-12-08T18:51:51.004Z,97904.72
2022-12-08T18:54:22.091Z,97900.63
2022-12-08T18:56:56.622Z,97908.66
2022-12-08T18:59:24.643Z,97901.66
2022-12-08T19:01:54.195Z,97891.44
2022-12-08T19:04:29.875Z,97895.38
2022-12-08T19:06:59.172Z,97879.06
2022-12-08T19:09:29.152Z,97876.75
2022-12-08T19:11:58.442Z,97881.16
2022-12-08T19:14:28.428Z,97877.63
2022-12-08T19:16:58.860Z,97882.16
2022-12-08T19:19:27.779Z,97882.47
2022-12-08T19:21:56.340Z,97875.34
2022-12-08T19:24:24.624Z,97863.00
2022-12-08T19:26:52.739Z,97871.66
2022-12-08T19:29:20.778Z,97868.53
2022-12-08T19:31:49.050Z,97854.78
2022-12-08T19:34:18.572Z,97866.31
2022-12-08T19:36:46.677Z,97865.72
2022-12-08T19:39:37.224Z,97869.41
2022-12-08T19:42:24.571Z,97866.69
2022-12-08T19:44:55.199Z,97823.56
2022-12-08T19:47:25.052Z,97855.84
2022-12-08T19:50:15.303Z,97859.84
2022-12-08T19:52:43.522Z,97862.13
2022-12-08T19:55:11.873Z,97821.97
2022-12-08T19:57:39.921Z,97820.44
2022-12-08T20:00:10.436Z,97856.97
2022-12-08T20:02:38.866Z,97860.22
2022-12-08T20:05:09.861Z,97856.53
2022-12-08T20:07:38.248Z,97843.44
2022-12-08T20:10:09.490Z,97855.56
2022-12-08T20:12:39.092Z,97858.56
2022-12-08T20:15:09.878Z,97850.56
2022-12-08T20:17:38.049Z,97851.38
2022-12-08T20:20:09.883Z,97843.31
2022-12-08T20:22:38.288Z,97854.50
2022-12-08T20:25:06.908Z,97871.66
2022-12-08T20:27:34.910Z,97876.13
2022-12-08T20:30:03.048Z,97870.91
2022-12-08T20:32:31.333Z,97868.16
2022-12-08T20:35:00.778Z,97863.19
2022-12-08T20:37:30.360Z,97864.94
2022-12-08T20:39:58.493Z,97866.44
2022-12-08T20:42:26.595Z,97866.44
2022-12-08T20:44:54.583Z,97862.81
2022-12-08T20:47:22.697Z,97857.31
2022-12-08T20:49:51.776Z,97858.28
2022-12-08T20:52:19.906Z,97851.81
2022-12-08T20:54:49.645Z,97847.06
2022-12-08T20:57:17.800Z,97857.81
2022-12-08T20:59:46.088Z,97848.97
2022-12-08T21:02:14.197Z,97827.63
2022-12-08T21:04:42.459Z,97830.16
2022-12-08T21:07:10.980Z,97837.38
2022-12-08T21:09:39.325Z,97837.84
2022-12-08T21:12:09.081Z,97831.25
2022-12-08T21:14:37.951Z,97819.69
2022-12-08T21:17:06.152Z,97822.53
2022-12-08T21:19:34.383Z,97833.59
2022-12-08T21:22:02.480Z,97840.19
2022-12-08T21:24:34.427Z,97838.88
2022-12-08T21:27:03.268Z,97827.31
2022-12-08T21:29:32.784Z,97832.56
2022-12-08T21:32:01.333Z,97826.13
2022-12-08T21:34:34.244Z,97803.13
2022-12-08T21:37:02.788Z,97838.75
2022-12-08T21:39:31.129Z,97831.03
2022-12-08T21:42:17.994Z,97826.53
2022-12-08T21:44:49.932Z,97826.69
2022-12-08T21:47:18.136Z,97803.41
2022-12-08T21:49:47.136Z,97820.66
2022-12-08T21:52:15.704Z,97796.59
2022-12-08T21:54:45.531Z,97814.31
2022-12-08T21:57:15.950Z,97799.97
2022-12-08T21:59:44.095Z,97803.81
2022-12-08T22:02:19.582Z,97805.34
2022-12-08T22:04:50.880Z,97808.19
2022-12-08T22:07:21.105Z,97799.63
2022-12-08T22:09:49.445Z,97801.53
2022-12-08T22:12:18.710Z,97796.22
2022-12-08T22:15:18.003Z,97795.88
2022-12-08T22:17:47.725Z,97810.28
2022-12-08T22:20:17.250Z,97814.56
2022-12-08T22:22:46.047Z,97809.84
2022-12-08T22:25:14.536Z,97804.47
2022-12-08T22:27:44.376Z,97791.13
2022-12-08T22:30:18.143Z,97766.94
2022-12-08T22:32:49.222Z,97759.50
2022-12-08T22:35:18.690Z,97784.09
2022-12-08T22:37:52.101Z,97782.84
2022-12-08T22:40:24.201Z,97791.84
2022-12-08T22:42:56.233Z,97784.38
2022-12-08T22:45:28.598Z,97778.06
2022-12-08T22:48:07.878Z,97770.78
2022-12-08T22:50:39.658Z,97759.03
2022-12-08T22:53:09.316Z,97770.16
2022-12-08T22:55:45.245Z,97775.78
2022-12-08T22:58:21.996Z,97778.31
2022-12-08T23:03:40.965Z,97732.56
2022-12-08T23:06:13.487Z,97777.03
2022-12-08T23:08:43.096Z,97770.13
2022-12-08T23:11:14.437Z,97764.38
2022-12-08T23:13:42.720Z,97776.78
2022-12-08T23:16:12.590Z,97783.72
2022-12-08T23:18:44.969Z,97771.06
2022-12-08T23:21:15.729Z,97764.13
2022-12-08T23:23:46.905Z,97751.63
2022-12-08T23:26:23.358Z,97745.91
2022-12-08T23:28:52.305Z,97760.56
2022-12-08T23:31:21.000Z,97756.06
2022-12-08T23:33:50.700Z,97756.13
2022-12-08T23:36:22.063Z,97758.34
2022-12-08T23:38:54.431Z,97751.72
2022-12-08T23:44:09.261Z,97733.88
2022-12-08T23:46:37.390Z,97739.16
2022-12-08T23:49:07.739Z,97736.00
2022-12-08T23:51:35.946Z,97747.84
2022-12-08T23:54:07.555Z,97749.09
2022-12-08T23:56:35.842Z,97730.66
2022-12-08T23:59:04.195Z,97740.44
